Terminal Aerodrome Forecast
Issued by NWS Boston, MA

Home | Current Version | Previous Version | Text Only | Print | Product List | Glossary On
Versions: 1 2 3 4 5 6 7 8 9 10 11 12 13 14 15 16 17 18 19 20 21 22 23
000
FTUS41 KBOX 230529
TAFPVD
TAF
KPVD 230529Z 2306/2406 19005KT 3SM BR BKN005
     FM230800 26006KT P6SM SCT070
     FM231100 29006KT P6SM BKN045
     FM231500 30010KT P6SM BKN040
     FM232100 32016G23KT P6SM BKN040=

USA.gov is the U.S. government's official web portal to all federal, state and local government web resources and services.